createdAt,value
2023-02-02T00:01:38.202Z,4.80
2023-02-02T00:06:46.462Z,4.81
2023-02-02T00:11:54.994Z,4.82
2023-02-02T00:17:02.470Z,4.83
2023-02-02T00:22:10.622Z,4.84
2023-02-02T00:27:18.914Z,4.86
2023-02-02T00:32:27.307Z,4.87
2023-02-02T00:37:35.740Z,4.87
2023-02-02T00:42:49.670Z,4.88
2023-02-02T00:47:57.378Z,4.88
2023-02-02T00:53:06.253Z,4.88
2023-02-02T00:58:14.859Z,4.89
2023-02-02T01:03:22.799Z,4.89
2023-02-02T01:08:31.108Z,4.89
2023-02-02T01:13:39.812Z,4.89
2023-02-02T01:18:48.133Z,4.89
2023-02-02T01:23:56.383Z,4.89
2023-02-02T01:29:04.411Z,4.89
2023-02-02T01:34:12.805Z,4.90
2023-02-02T01:39:24.177Z,4.90
2023-02-02T01:45:12.151Z,4.90
2023-02-02T01:50:23.700Z,4.90
2023-02-02T01:55:33.316Z,4.90
2023-02-02T02:00:46.945Z,4.91
2023-02-02T02:06:00.582Z,4.91
2023-02-02T02:11:09.155Z,4.92
2023-02-02T02:16:22.898Z,4.92
2023-02-02T02:22:04.921Z,4.93
2023-02-02T02:27:41.165Z,4.93
2023-02-02T02:32:58.566Z,4.93
2023-02-02T02:38:11.511Z,4.95
2023-02-02T02:43:23.150Z,4.94
2023-02-02T02:48:32.555Z,4.95
2023-02-02T02:53:40.687Z,4.95
2023-02-02T02:58:55.772Z,4.95
2023-02-02T03:04:12.767Z,4.95
2023-02-02T03:09:24.886Z,4.96
2023-02-02T03:14:36.520Z,4.96
2023-02-02T03:19:44.559Z,4.96
2023-02-02T03:24:53.040Z,4.97
2023-02-02T03:30:02.413Z,4.98
2023-02-02T03:35:11.984Z,4.97
2023-02-02T03:40:21.101Z,4.97
2023-02-02T03:45:31.218Z,4.96
2023-02-02T03:50:40.713Z,4.95
2023-02-02T03:55:49.199Z,4.94
2023-02-02T04:01:01.621Z,4.92
2023-02-02T04:06:10.532Z,4.90
2023-02-02T04:11:18.161Z,4.89
2023-02-02T04:16:25.595Z,4.86
2023-02-02T04:21:32.808Z,4.84
2023-02-02T04:26:40.100Z,4.83
2023-02-02T04:31:47.480Z,4.80
2023-02-02T04:36:56.457Z,4.79
2023-02-02T04:42:04.714Z,4.77
2023-02-02T04:47:13.040Z,4.77
2023-02-02T04:52:21.705Z,4.76
2023-02-02T04:57:29.951Z,4.77
2023-02-02T05:02:39.461Z,4.77
2023-02-02T05:07:48.065Z,4.77
2023-02-02T05:12:58.928Z,4.77
2023-02-02T05:18:07.257Z,4.78
2023-02-02T05:23:15.507Z,4.79
2023-02-02T05:28:24.960Z,4.79
2023-02-02T05:33:33.543Z,4.81
2023-02-02T05:38:41.647Z,4.81
2023-02-02T05:43:49.773Z,4.82
2023-02-02T05:48:59.298Z,4.83
2023-02-02T05:54:07.494Z,4.84
2023-02-02T05:59:17.915Z,4.85
2023-02-02T06:04:26.223Z,4.87
2023-02-02T06:09:34.558Z,4.88
2023-02-02T06:14:42.865Z,4.90
2023-02-02T06:19:51.227Z,4.92
2023-02-02T06:24:59.541Z,4.94
2023-02-02T06:30:07.468Z,4.95
2023-02-02T06:35:15.395Z,4.98
2023-02-02T06:40:23.884Z,4.99
2023-02-02T06:45:33.303Z,5.00
2023-02-02T06:50:41.865Z,5.02
2023-02-02T06:55:56.973Z,5.04
2023-02-02T07:01:07.754Z,5.05
2023-02-02T07:06:21.316Z,5.07
2023-02-02T07:11:29.028Z,5.09
2023-02-02T07:16:37.602Z,5.11
2023-02-02T07:21:44.927Z,5.13
2023-02-02T07:26:53.032Z,5.15
2023-02-02T07:32:01.265Z,5.17
2023-02-02T07:37:09.437Z,5.19
2023-02-02T07:42:17.602Z,5.21
2023-02-02T07:47:25.965Z,5.22
2023-02-02T07:52:37.351Z,5.24
2023-02-02T07:57:46.601Z,5.26
2023-02-02T08:02:55.116Z,5.28
2023-02-02T08:08:04.452Z,5.29
2023-02-02T08:13:14.222Z,5.31
2023-02-02T08:18:22.973Z,5.33
2023-02-02T08:23:32.349Z,5.35
2023-02-02T08:28:41.253Z,5.36
2023-02-02T08:33:50.295Z,5.38
2023-02-02T08:39:03.080Z,5.39
2023-02-02T08:44:15.191Z,5.39
2023-02-02T08:49:23.908Z,5.41
2023-02-02T08:54:32.307Z,5.42
2023-02-02T08:59:40.614Z,5.44
2023-02-02T09:04:49.653Z,5.47
2023-02-02T09:09:58.747Z,5.49
2023-02-02T09:15:08.664Z,5.51
2023-02-02T09:20:19.028Z,5.54
2023-02-02T09:25:29.001Z,5.57
2023-02-02T09:30:37.924Z,5.59
2023-02-02T09:35:47.019Z,5.61
2023-02-02T09:40:55.371Z,5.64
2023-02-02T09:46:12.890Z,5.68
2023-02-02T09:51:25.595Z,5.71
2023-02-02T09:56:41.677Z,5.75
2023-02-02T10:01:54.302Z,5.78
2023-02-02T10:07:10.530Z,5.78
2023-02-02T10:12:30.297Z,5.77
2023-02-02T10:17:48.209Z,5.74
2023-02-02T10:23:01.338Z,5.69
2023-02-02T10:28:19.600Z,5.64
2023-02-02T10:33:37.695Z,5.58
2023-02-02T10:38:55.789Z,5.52
2023-02-02T10:44:16.029Z,5.47
2023-02-02T10:49:32.771Z,5.41
2023-02-02T10:54:57.161Z,5.37
2023-02-02T11:00:16.898Z,5.33
2023-02-02T11:05:45.343Z,5.30
2023-02-02T11:10:57.672Z,5.27
2023-02-02T11:16:41.609Z,5.24
2023-02-02T11:21:54.899Z,5.22
2023-02-02T11:27:06.076Z,5.21
2023-02-02T11:32:33.371Z,5.20
2023-02-02T11:37:54.582Z,5.20
2023-02-02T11:43:05.786Z,5.19
2023-02-02T11:48:19.702Z,5.20
2023-02-02T11:53:33.287Z,5.20
2023-02-02T11:58:51.692Z,5.20
2023-02-02T12:04:01.954Z,5.21
2023-02-02T12:09:16.385Z,5.22
2023-02-02T12:14:35.059Z,5.24
2023-02-02T12:20:05.162Z,5.27
2023-02-02T12:25:38.332Z,5.31
2023-02-02T12:30:54.483Z,5.36
2023-02-02T12:36:34.601Z,5.40
2023-02-02T12:42:02.074Z,5.44
2023-02-02T12:47:21.807Z,5.47
2023-02-02T12:52:55.273Z,5.50
2023-02-02T12:58:14.561Z,5.52
2023-02-02T13:03:43.335Z,5.54
2023-02-02T13:08:58.789Z,5.56
2023-02-02T13:14:14.201Z,5.57
2023-02-02T13:19:31.131Z,5.58
2023-02-02T13:24:43.086Z,5.57
2023-02-02T13:29:54.140Z,5.56
2023-02-02T13:35:07.172Z,5.55
2023-02-02T13:40:27.310Z,5.54
2023-02-02T13:45:53.626Z,5.53
2023-02-02T13:51:24.211Z,5.52
2023-02-02T13:56:47.742Z,5.53
2023-02-02T14:01:59.957Z,5.52
2023-02-02T14:12:17.288Z,5.49
2023-02-02T14:17:55.570Z,5.49
2023-02-02T14:23:04.515Z,5.46
2023-02-02T14:28:37.011Z,5.43
2023-02-02T14:33:48.117Z,5.41
2023-02-02T14:39:22.128Z,5.38
2023-02-02T14:44:31.399Z,5.35
2023-02-02T14:49:40.461Z,5.32
2023-02-02T14:54:53.691Z,5.29
2023-02-02T15:00:02.293Z,5.25
2023-02-02T15:05:47.214Z,5.22
2023-02-02T15:11:32.628Z,5.19
2023-02-02T15:16:43.965Z,5.16
2023-02-02T15:21:54.954Z,5.14
2023-02-02T15:27:09.504Z,5.11
2023-02-02T15:32:22.193Z,5.08
2023-02-02T15:37:40.757Z,5.05
2023-02-02T15:42:55.219Z,5.03
2023-02-02T15:48:10.559Z,5.01
2023-02-02T15:53:23.372Z,4.99
2023-02-02T15:58:34.661Z,4.97
2023-02-02T16:03:52.371Z,4.90
2023-02-02T16:09:04.054Z,4.82
2023-02-02T16:14:19.560Z,4.75
2023-02-02T16:19:30.770Z,4.69
2023-02-02T16:24:41.915Z,4.64
2023-02-02T16:29:51.058Z,4.59
2023-02-02T16:35:00.657Z,4.55
2023-02-02T16:40:27.552Z,4.52
2023-02-02T16:45:51.567Z,4.49
2023-02-02T16:51:11.690Z,4.47
2023-02-02T16:56:30.084Z,4.45
2023-02-02T17:01:41.975Z,4.42
2023-02-02T17:06:53.189Z,4.40
2023-02-02T17:12:14.352Z,4.37
2023-02-02T17:17:27.053Z,4.35
2023-02-02T17:22:39.689Z,4.33
2023-02-02T17:27:47.482Z,4.29
2023-02-02T17:32:55.719Z,4.28
2023-02-02T17:38:05.067Z,4.25
2023-02-02T17:43:16.783Z,4.22
2023-02-02T17:48:25.564Z,4.17
2023-02-02T17:53:35.189Z,4.12
2023-02-02T17:58:44.028Z,4.07
2023-02-02T18:03:52.390Z,4.03
2023-02-02T18:09:00.612Z,3.99
2023-02-02T18:14:09.401Z,3.94
2023-02-02T18:19:17.644Z,3.89
2023-02-02T18:24:26.230Z,3.84
2023-02-02T18:29:35.031Z,3.79
2023-02-02T18:34:43.938Z,3.74
2023-02-02T18:39:52.316Z,3.72
2023-02-02T18:45:00.859Z,3.68
2023-02-02T18:50:10.240Z,3.65
2023-02-02T18:55:19.022Z,3.61
2023-02-02T19:00:27.959Z,3.57
2023-02-02T19:05:57.231Z,3.53
2023-02-02T19:11:23.681Z,3.48
2023-02-02T19:16:35.687Z,3.44
2023-02-02T19:21:45.094Z,3.40
2023-02-02T19:26:54.388Z,3.36
2023-02-02T19:32:08.052Z,3.34
2023-02-02T19:37:26.145Z,3.32
2023-02-02T19:42:34.476Z,3.30
2023-02-02T19:47:45.008Z,3.29
2023-02-02T19:52:54.004Z,3.28
2023-02-02T19:58:15.673Z,3.28
2023-02-02T20:03:25.191Z,3.28
2023-02-02T20:08:40.488Z,3.28
2023-02-02T20:13:50.057Z,3.29
2023-02-02T20:18:59.979Z,3.36
2023-02-02T20:24:16.013Z,3.41
2023-02-02T20:29:27.689Z,3.45
2023-02-02T20:34:38.039Z,3.47
2023-02-02T20:39:50.375Z,3.49
2023-02-02T20:44:58.787Z,3.51
2023-02-02T20:50:08.301Z,3.52
2023-02-02T20:55:17.386Z,3.52
2023-02-02T21:00:28.069Z,3.51
2023-02-02T21:05:37.616Z,3.51
2023-02-02T21:10:46.125Z,3.49
2023-02-02T21:15:55.410Z,3.48
2023-02-02T21:21:04.130Z,3.45
2023-02-02T21:26:13.408Z,3.43
2023-02-02T21:31:22.124Z,3.40
2023-02-02T21:36:37.056Z,3.37
2023-02-02T21:41:45.508Z,3.35
2023-02-02T21:46:55.386Z,3.31
2023-02-02T21:52:14.984Z,3.29
2023-02-02T21:57:37.938Z,3.27
2023-02-02T22:02:50.727Z,3.26
2023-02-02T22:08:01.178Z,3.24
2023-02-02T22:13:18.306Z,3.23
2023-02-02T22:18:28.753Z,3.23
2023-02-02T22:23:36.951Z,3.22
2023-02-02T22:28:45.203Z,3.21
2023-02-02T22:33:53.075Z,3.21
2023-02-02T22:39:01.431Z,3.20
2023-02-02T22:44:10.103Z,3.17
2023-02-02T22:49:18.368Z,3.16
2023-02-02T22:54:25.890Z,3.14
2023-02-02T22:59:36.889Z,3.12
2023-02-02T23:04:44.358Z,3.10
2023-02-02T23:09:51.711Z,3.07
2023-02-02T23:14:59.231Z,3.02
2023-02-02T23:20:09.633Z,2.98
2023-02-02T23:25:19.999Z,2.94
2023-02-02T23:30:28.884Z,2.91
2023-02-02T23:35:37.120Z,2.89
2023-02-02T23:40:46.135Z,2.86
2023-02-02T23:45:54.524Z,2.86
2023-02-02T23:51:03.775Z,2.85
2023-02-02T23:56:12.667Z,2.84
